createdAt,value
2019-05-20T00:02:38.033Z,7.03
2019-05-20T00:07:40.524Z,6.57
2019-05-20T00:12:43.042Z,6.73
2019-05-20T00:17:45.483Z,7.87
2019-05-20T00:22:47.958Z,6.73
2019-05-20T00:27:50.463Z,6.50
2019-05-20T00:32:52.955Z,6.27
2019-05-20T00:37:55.444Z,6.10
2019-05-20T00:42:57.920Z,6.70
2019-05-20T00:48:00.396Z,6.80
2019-05-20T00:53:02.876Z,6.53
2019-05-20T00:58:05.364Z,6.77
2019-05-20T01:03:07.871Z,7.17
2019-05-20T01:08:10.457Z,6.70
2019-05-20T01:13:12.948Z,6.50
2019-05-20T01:18:15.430Z,6.37
2019-05-20T01:23:17.904Z,6.90
2019-05-20T01:28:20.376Z,6.57
2019-05-20T01:33:22.866Z,7.40
2019-05-20T01:38:25.349Z,7.03
2019-05-20T01:43:27.833Z,6.90
2019-05-20T01:48:30.329Z,7.00
2019-05-20T01:53:32.817Z,7.70
2019-05-20T01:58:35.353Z,7.73
2019-05-20T02:03:37.768Z,8.03
2019-05-20T02:08:40.238Z,7.93
2019-05-20T02:13:54.708Z,7.67
2019-05-20T02:18:57.211Z,8.20
2019-05-20T02:23:59.687Z,7.47
2019-05-20T02:29:02.245Z,8.90
2019-05-20T02:34:04.678Z,9.10
2019-05-20T02:39:07.158Z,8.73
2019-05-20T02:44:09.642Z,9.20
2019-05-20T02:49:12.194Z,9.73
2019-05-20T02:54:14.638Z,10.23
2019-05-20T02:59:17.148Z,11.00
2019-05-20T03:04:19.611Z,11.40
2019-05-20T03:09:22.101Z,11.80
2019-05-20T03:14:24.678Z,13.03
2019-05-20T03:19:27.175Z,12.10
2019-05-20T03:24:29.656Z,11.53
2019-05-20T03:29:32.156Z,10.87
2019-05-20T03:34:50.561Z,10.70
2019-05-20T03:39:37.242Z,10.33
2019-05-20T03:44:39.726Z,10.13
2019-05-20T03:49:42.216Z,10.73
2019-05-20T03:54:44.728Z,10.70
2019-05-20T03:59:47.251Z,10.90
2019-05-20T04:05:01.253Z,10.70
2019-05-20T04:09:52.218Z,9.87
2019-05-20T04:14:54.705Z,9.70
2019-05-20T04:19:57.186Z,9.47
2019-05-20T04:24:59.684Z,9.77
2019-05-20T04:30:02.168Z,10.03
2019-05-20T04:35:20.576Z,10.03
2019-05-20T04:40:07.141Z,9.87
2019-05-20T04:45:09.637Z,9.77
2019-05-20T04:50:12.135Z,9.53
2019-05-20T04:55:14.632Z,10.20
2019-05-20T05:00:17.131Z,10.17
2019-05-20T05:05:19.619Z,9.10
2019-05-20T05:10:22.093Z,8.77
2019-05-20T05:15:24.587Z,8.87
2019-05-20T05:20:27.074Z,9.07
2019-05-20T05:25:29.611Z,8.53
2019-05-20T05:30:32.327Z,8.63
2019-05-20T05:35:34.821Z,9.93
2019-05-20T05:40:37.300Z,10.83
2019-05-20T05:45:39.840Z,11.47
2019-05-20T05:50:42.428Z,13.07
2019-05-20T05:55:44.927Z,14.57
2019-05-20T06:00:47.420Z,15.00
2019-05-20T06:05:49.907Z,15.80
2019-05-20T06:10:52.405Z,14.83
2019-05-20T06:15:54.902Z,16.07
2019-05-20T06:20:57.397Z,16.13
2019-05-20T06:26:00.057Z,15.77
2019-05-20T06:31:02.489Z,17.07
2019-05-20T06:36:05.000Z,16.47
2019-05-20T06:41:07.521Z,17.13
2019-05-20T06:46:10.071Z,17.17
2019-05-20T06:51:12.513Z,19.57
2019-05-20T06:56:15.012Z,19.30
2019-05-20T07:01:17.647Z,20.70
2019-05-20T07:06:20.158Z,22.47
2019-05-20T07:11:22.677Z,24.80
2019-05-20T07:16:25.171Z,26.40
2019-05-20T07:21:27.676Z,26.40
2019-05-20T07:26:30.190Z,27.50
2019-05-20T07:31:32.676Z,28.30
2019-05-20T07:36:35.168Z,28.23
2019-05-20T07:41:41.161Z,29.83
2019-05-20T07:46:40.161Z,27.43
2019-05-20T07:51:42.662Z,30.20
2019-05-20T07:56:45.196Z,29.53
2019-05-20T08:01:47.691Z,29.67
2019-05-20T08:06:50.203Z,29.60
2019-05-20T08:11:52.681Z,29.03
2019-05-20T08:16:55.190Z,28.17
2019-05-20T08:21:57.672Z,29.37
2019-05-20T08:27:00.199Z,29.10
2019-05-20T08:32:02.695Z,28.37
2019-05-20T08:37:05.173Z,26.50
2019-05-20T08:42:07.659Z,22.97
2019-05-20T08:47:10.158Z,25.13
2019-05-20T08:52:12.819Z,27.53
2019-05-20T08:57:15.222Z,30.03
2019-05-20T09:02:17.719Z,31.70
2019-05-20T09:07:20.223Z,32.43
2019-05-20T09:12:22.699Z,31.47
2019-05-20T09:17:25.206Z,33.30
2019-05-20T09:22:27.718Z,35.23
2019-05-20T09:27:30.197Z,34.60
2019-05-20T09:32:32.691Z,34.43
2019-05-20T09:37:35.175Z,34.93
2019-05-20T09:42:40.816Z,35.20
2019-05-20T09:47:40.154Z,33.47
2019-05-20T09:52:42.640Z,33.17
2019-05-20T09:57:45.129Z,32.37
2019-05-20T10:02:47.620Z,30.33
2019-05-20T10:07:50.126Z,31.73
2019-05-20T10:12:52.613Z,28.17
2019-05-20T10:17:55.092Z,30.53
2019-05-20T10:22:57.611Z,30.07
2019-05-20T10:28:00.073Z,29.23
2019-05-20T10:33:02.574Z,29.60
2019-05-20T10:38:05.077Z,29.07
2019-05-20T10:43:07.574Z,29.60
2019-05-20T10:48:10.064Z,29.03
2019-05-20T10:53:12.550Z,27.87
2019-05-20T10:58:15.110Z,29.10
2019-05-20T11:03:17.594Z,29.63
2019-05-20T11:08:20.127Z,29.90
2019-05-20T11:13:22.629Z,31.43
2019-05-20T11:18:25.122Z,30.33
2019-05-20T11:23:27.711Z,28.37
2019-05-20T11:28:30.092Z,26.53
2019-05-20T11:33:32.601Z,27.90
2019-05-20T11:38:35.096Z,28.20
2019-05-20T11:43:37.589Z,26.97
2019-05-20T11:48:40.134Z,27.93
2019-05-20T11:53:42.616Z,28.70
2019-05-20T11:58:45.118Z,26.93
2019-05-20T12:03:47.620Z,26.00
2019-05-20T12:08:52.467Z,26.43
2019-05-20T12:13:52.756Z,25.63
2019-05-20T12:18:55.251Z,23.70
2019-05-20T12:23:57.748Z,24.13
2019-05-20T12:29:00.244Z,25.60
2019-05-20T12:34:02.748Z,24.60
2019-05-20T12:39:05.250Z,23.40
2019-05-20T12:44:12.708Z,25.00
2019-05-20T12:49:10.428Z,25.37
2019-05-20T12:54:12.740Z,23.83
2019-05-20T12:59:15.278Z,22.37
2019-05-20T13:04:17.771Z,22.87
2019-05-20T13:09:20.269Z,21.03
2019-05-20T13:14:22.752Z,21.20
2019-05-20T13:19:25.293Z,19.60
2019-05-20T13:24:27.796Z,18.60
2019-05-20T13:29:30.286Z,18.97
2019-05-20T13:34:32.766Z,19.00
2019-05-20T13:39:35.317Z,18.73
2019-05-20T13:44:37.792Z,19.80
2019-05-20T13:49:40.309Z,18.30
2019-05-20T13:54:42.783Z,16.37
2019-05-20T13:59:45.275Z,15.70
2019-05-20T14:04:47.759Z,16.43
2019-05-20T14:09:50.258Z,17.60
2019-05-20T14:14:52.752Z,16.60
2019-05-20T14:19:55.256Z,17.37
2019-05-20T14:24:57.852Z,18.80
2019-05-20T14:30:00.275Z,19.33
2019-05-20T14:35:02.788Z,18.90
2019-05-20T14:40:05.267Z,18.80
2019-05-20T14:45:07.767Z,20.57
2019-05-20T14:50:10.284Z,18.90
2019-05-20T14:55:12.763Z,17.97
2019-05-20T15:00:15.292Z,19.60
2019-05-20T15:05:17.914Z,25.07
2019-05-20T15:10:20.372Z,26.37
2019-05-20T15:15:22.882Z,26.23
2019-05-20T15:20:25.395Z,26.27
2019-05-20T15:25:27.888Z,26.77
2019-05-20T15:30:30.384Z,27.03
2019-05-20T15:35:32.888Z,27.30
2019-05-20T15:40:35.408Z,27.30
2019-05-20T15:45:37.895Z,29.00
2019-05-20T15:50:40.396Z,29.67
2019-05-20T15:55:42.883Z,30.20
2019-05-20T16:00:45.372Z,31.37
2019-05-20T16:05:47.869Z,30.43
2019-05-20T16:10:50.374Z,30.00
2019-05-20T16:15:52.899Z,33.33
2019-05-20T16:20:55.396Z,33.70
2019-05-20T16:25:57.885Z,34.23
2019-05-20T16:31:00.382Z,36.17
2019-05-20T16:36:02.957Z,42.70
2019-05-20T16:41:05.459Z,39.73
2019-05-20T16:46:08.042Z,41.37
2019-05-20T16:51:10.540Z,42.10
2019-05-20T16:56:13.014Z,42.40
2019-05-20T17:01:15.535Z,42.23
2019-05-20T17:06:18.010Z,42.27
2019-05-20T17:11:20.545Z,41.37
2019-05-20T17:16:23.027Z,39.13
2019-05-20T17:21:25.533Z,38.53
2019-05-20T17:26:28.020Z,38.03
2019-05-20T17:31:31.008Z,40.07
2019-05-20T17:36:33.050Z,38.00
2019-05-20T17:41:35.614Z,38.90
2019-05-20T17:46:38.129Z,38.37
2019-05-20T17:51:43.315Z,38.90
2019-05-20T17:56:43.384Z,37.17
2019-05-20T18:01:45.926Z,39.33
2019-05-20T18:06:48.453Z,38.63
2019-05-20T18:11:50.961Z,40.40
2019-05-20T18:16:53.474Z,41.73
2019-05-20T18:21:55.977Z,40.77
2019-05-20T18:26:58.481Z,41.70
2019-05-20T18:32:00.977Z,41.37
2019-05-20T18:37:03.490Z,40.53
2019-05-20T18:42:05.989Z,39.90
2019-05-20T18:47:08.479Z,40.40
2019-05-20T18:52:10.991Z,37.33
2019-05-20T18:57:13.515Z,36.67
2019-05-20T19:02:15.990Z,35.37
2019-05-20T19:07:18.488Z,35.10
2019-05-20T19:12:20.977Z,35.70
2019-05-20T19:17:23.622Z,37.27
2019-05-20T19:22:26.043Z,34.93
2019-05-20T19:27:28.542Z,36.77
2019-05-20T19:32:31.044Z,36.63
2019-05-20T19:37:33.553Z,36.73
2019-05-20T19:42:36.042Z,36.17
2019-05-20T19:47:38.530Z,39.57
2019-05-20T19:52:41.040Z,40.07
2019-05-20T19:57:43.531Z,46.83
2019-05-20T20:02:46.011Z,43.43
2019-05-20T20:07:48.591Z,45.47
2019-05-20T20:12:51.157Z,49.20
2019-05-20T20:17:53.616Z,46.97
2019-05-20T20:22:56.107Z,47.87
2019-05-20T20:27:58.609Z,48.67
2019-05-20T20:33:01.100Z,48.53
2019-05-20T20:38:03.612Z,55.73
2019-05-20T20:43:06.115Z,55.53
2019-05-20T20:48:08.603Z,51.47
2019-05-20T20:53:11.105Z,53.07
2019-05-20T20:58:14.503Z,48.87
2019-05-20T21:03:17.039Z,54.07
2019-05-20T21:08:19.542Z,46.63
2019-05-20T21:13:22.037Z,48.63
2019-05-20T21:18:24.569Z,47.40
2019-05-20T21:23:27.056Z,46.03
2019-05-20T21:28:29.540Z,49.60
2019-05-20T21:33:32.040Z,51.37
2019-05-20T21:38:34.531Z,47.00
2019-05-20T21:43:37.041Z,52.43
2019-05-20T21:48:39.535Z,50.87
2019-05-20T21:53:42.049Z,55.07
2019-05-20T21:58:44.524Z,62.57
2019-05-20T22:03:47.012Z,52.97
2019-05-20T22:08:49.517Z,54.03
2019-05-20T22:13:52.084Z,52.13
2019-05-20T22:18:54.568Z,52.00
2019-05-20T22:23:57.064Z,55.00
2019-05-20T22:28:59.531Z,59.50
2019-05-20T22:34:02.032Z,56.27
2019-05-20T22:39:04.527Z,54.87
2019-05-20T22:44:07.019Z,51.80
2019-05-20T22:49:09.523Z,54.33
2019-05-20T22:54:12.077Z,54.43
2019-05-20T22:59:14.531Z,54.20
2019-05-20T23:04:17.024Z,58.10
2019-05-20T23:09:19.512Z,52.60
2019-05-20T23:14:21.988Z,55.00
2019-05-20T23:19:24.503Z,59.67
2019-05-20T23:24:26.972Z,53.33
2019-05-20T23:29:29.452Z,56.13
2019-05-20T23:34:31.944Z,56.00
2019-05-20T23:39:34.440Z,58.10
2019-05-20T23:44:36.921Z,59.53
2019-05-20T23:49:39.409Z,57.43
2019-05-20T23:54:41.910Z,60.23
2019-05-20T23:59:44.390Z,64.10
